createdAt,value
2023-01-29T00:01:48.137Z,46.17
2023-01-29T00:05:49.483Z,46.13
2023-01-29T00:09:50.829Z,49.40
2023-01-29T00:13:52.934Z,46.17
2023-01-29T00:17:54.323Z,44.57
2023-01-29T00:21:55.736Z,50.43
2023-01-29T00:25:59.980Z,48.20
2023-01-29T00:30:12.694Z,43.27
2023-01-29T00:34:14.015Z,44.40
2023-01-29T00:38:15.527Z,44.17
2023-01-29T00:42:35.521Z,42.37
2023-01-29T00:46:36.992Z,43.63
2023-01-29T00:50:38.350Z,40.17
2023-01-29T00:54:39.708Z,41.70
2023-01-29T00:58:40.977Z,42.27
2023-01-29T01:03:01.249Z,43.17
2023-01-29T01:07:02.576Z,43.93
2023-01-29T01:11:06.341Z,40.87
2023-01-29T01:15:08.059Z,41.57
2023-01-29T01:19:09.957Z,43.80
2023-01-29T01:23:11.234Z,42.57
2023-01-29T01:27:13.352Z,43.20
2023-01-29T01:31:15.517Z,42.70
2023-01-29T01:35:17.178Z,43.20
2023-01-29T01:39:18.612Z,39.50
2023-01-29T01:43:19.969Z,42.63
2023-01-29T01:47:27.888Z,42.03
2023-01-29T01:51:32.119Z,41.43
2023-01-29T01:55:35.799Z,40.47
2023-01-29T01:59:40.070Z,45.53
2023-01-29T02:04:14.456Z,43.03
2023-01-29T02:08:41.401Z,47.27
2023-01-29T02:12:45.302Z,48.13
2023-01-29T02:16:46.684Z,40.90
2023-01-29T02:21:29.163Z,52.07
2023-01-29T02:25:55.409Z,41.83
2023-01-29T02:30:13.724Z,46.47
2023-01-29T02:34:28.641Z,42.70
2023-01-29T02:38:49.582Z,41.60
2023-01-29T02:42:55.824Z,40.77
2023-01-29T02:47:03.169Z,40.80
2023-01-29T02:51:11.342Z,37.47
2023-01-29T02:55:19.229Z,40.93
2023-01-29T02:59:25.365Z,36.93
2023-01-29T03:03:41.783Z,42.17
2023-01-29T03:07:51.920Z,38.47
2023-01-29T03:11:58.804Z,38.20
2023-01-29T03:16:11.403Z,41.47
2023-01-29T03:20:17.646Z,40.03
2023-01-29T03:24:45.048Z,40.50
2023-01-29T03:29:06.408Z,41.70
2023-01-29T03:33:11.120Z,46.73
2023-01-29T03:37:36.015Z,44.40
2023-01-29T03:41:53.638Z,44.07
2023-01-29T03:46:04.862Z,41.27
2023-01-29T03:50:24.610Z,40.80
2023-01-29T03:54:39.220Z,39.93
2023-01-29T03:58:48.225Z,42.00
2023-01-29T04:03:14.248Z,41.87
2023-01-29T04:07:23.728Z,42.83
2023-01-29T04:11:27.306Z,43.40
2023-01-29T04:15:33.870Z,44.73
2023-01-29T04:19:35.882Z,44.27
2023-01-29T04:23:37.220Z,43.00
2023-01-29T04:27:52.042Z,43.97
2023-01-29T04:32:35.232Z,43.83
2023-01-29T04:36:51.512Z,44.40
2023-01-29T04:41:01.320Z,44.37
2023-01-29T04:45:31.186Z,44.63
2023-01-29T04:49:41.203Z,40.33
2023-01-29T04:53:45.620Z,40.40
2023-01-29T04:58:24.512Z,38.73
2023-01-29T05:02:28.051Z,39.73
2023-01-29T05:06:31.538Z,39.87
2023-01-29T05:10:34.224Z,41.00
2023-01-29T05:14:37.726Z,41.23
2023-01-29T05:18:39.062Z,39.83
2023-01-29T05:22:41.739Z,40.20
2023-01-29T05:27:03.571Z,39.13
2023-01-29T05:31:05.019Z,39.27
2023-01-29T05:35:06.787Z,41.07
2023-01-29T05:39:08.135Z,39.90
2023-01-29T05:43:16.476Z,37.77
2023-01-29T05:47:21.249Z,38.17
2023-01-29T05:51:22.707Z,36.37
2023-01-29T05:55:23.998Z,37.03
2023-01-29T05:59:25.411Z,35.87
2023-01-29T06:03:26.695Z,34.53
2023-01-29T06:07:28.048Z,35.70
2023-01-29T06:11:29.582Z,38.20
2023-01-29T06:15:30.894Z,37.50
2023-01-29T06:19:32.256Z,36.13
2023-01-29T06:23:33.660Z,35.93
2023-01-29T06:27:35.176Z,35.60
2023-01-29T06:31:39.368Z,36.17
2023-01-29T06:35:41.152Z,35.40
2023-01-29T06:39:42.426Z,35.97
2023-01-29T06:43:44.887Z,36.30
2023-01-29T06:47:46.283Z,36.23
2023-01-29T06:51:47.578Z,36.00
2023-01-29T06:55:52.840Z,36.87
2023-01-29T06:59:54.229Z,36.70
2023-01-29T07:03:55.715Z,37.53
2023-01-29T07:07:57.635Z,36.43
2023-01-29T07:11:58.998Z,36.50
2023-01-29T07:16:02.981Z,35.37
2023-01-29T07:20:06.007Z,37.10
2023-01-29T07:24:07.650Z,36.27
2023-01-29T07:28:09.147Z,36.27
2023-01-29T07:32:10.567Z,34.37
2023-01-29T07:36:13.087Z,33.67
2023-01-29T07:40:15.062Z,34.20
2023-01-29T07:44:16.825Z,33.50
2023-01-29T07:48:18.539Z,32.60
2023-01-29T07:52:22.154Z,36.23
2023-01-29T07:56:23.815Z,34.33
2023-01-29T08:00:25.575Z,33.97
2023-01-29T08:04:26.888Z,34.23
2023-01-29T08:08:28.161Z,33.17
2023-01-29T08:12:29.523Z,34.00
2023-01-29T08:16:30.927Z,33.80
2023-01-29T08:20:32.539Z,32.90
2023-01-29T08:24:47.562Z,33.47
2023-01-29T08:28:55.334Z,32.70
2023-01-29T08:32:56.855Z,32.13
2023-01-29T08:36:58.489Z,33.93
2023-01-29T08:40:59.864Z,32.83
2023-01-29T08:45:01.187Z,34.23
2023-01-29T08:49:03.186Z,34.63
2023-01-29T08:53:09.806Z,33.97
2023-01-29T08:57:11.170Z,34.80
2023-01-29T09:01:14.237Z,33.73
2023-01-29T09:05:15.888Z,34.87
2023-01-29T09:09:18.327Z,33.53
2023-01-29T09:13:19.727Z,33.83
2023-01-29T09:17:21.390Z,33.43
2023-01-29T09:21:22.661Z,33.70
2023-01-29T09:25:24.036Z,33.73
2023-01-29T09:29:25.377Z,35.07
2023-01-29T09:33:26.871Z,33.27
2023-01-29T09:37:28.244Z,33.13
2023-01-29T09:41:45.287Z,33.40
2023-01-29T09:45:58.175Z,35.20
2023-01-29T09:50:04.903Z,32.63
2023-01-29T09:54:19.734Z,34.70
2023-01-29T09:58:39.725Z,33.83
2023-01-29T10:02:58.969Z,35.70
2023-01-29T10:07:19.327Z,33.90
2023-01-29T10:11:48.838Z,34.87
2023-01-29T10:16:22.852Z,34.20
2023-01-29T10:20:52.967Z,34.27
2023-01-29T10:25:00.447Z,32.90
2023-01-29T10:29:06.784Z,33.70
2023-01-29T10:33:19.078Z,34.07
2023-01-29T10:37:30.830Z,32.53
2023-01-29T10:41:54.075Z,31.47
2023-01-29T10:46:04.581Z,32.87
2023-01-29T10:50:16.304Z,33.23
2023-01-29T10:54:30.041Z,33.87
2023-01-29T10:58:34.514Z,32.67
2023-01-29T11:02:35.887Z,34.30
2023-01-29T11:06:37.446Z,33.90
2023-01-29T11:11:08.338Z,34.40
2023-01-29T11:15:18.735Z,33.90
2023-01-29T11:19:37.485Z,33.17
2023-01-29T11:23:38.799Z,34.03
2023-01-29T11:27:45.421Z,35.10
2023-01-29T11:31:47.114Z,34.03
2023-01-29T11:35:48.508Z,34.20
2023-01-29T11:39:50.585Z,36.77
2023-01-29T11:43:51.864Z,34.67
2023-01-29T11:47:55.861Z,33.97
2023-01-29T11:52:01.914Z,35.23
2023-01-29T11:56:16.153Z,34.70
2023-01-29T12:00:28.420Z,33.17
2023-01-29T12:04:30.303Z,36.77
2023-01-29T12:08:38.400Z,33.30
2023-01-29T12:12:42.275Z,32.00
2023-01-29T12:16:58.488Z,33.77
2023-01-29T12:21:23.873Z,32.60
2023-01-29T12:25:38.438Z,32.77
2023-01-29T12:29:52.811Z,33.57
2023-01-29T12:34:05.448Z,32.50
2023-01-29T12:38:21.794Z,32.17
2023-01-29T12:42:24.486Z,33.40
2023-01-29T12:46:33.855Z,32.63
2023-01-29T12:50:37.489Z,32.30
2023-01-29T12:54:49.152Z,33.00
2023-01-29T12:58:55.643Z,33.37
2023-01-29T13:03:20.990Z,34.27
2023-01-29T13:07:30.608Z,30.40
2023-01-29T13:11:42.592Z,30.60
2023-01-29T13:15:44.604Z,31.57
2023-01-29T13:19:50.769Z,31.90
2023-01-29T13:23:56.241Z,32.60
2023-01-29T13:27:57.775Z,30.60
2023-01-29T13:32:01.739Z,31.43
2023-01-29T13:36:03.684Z,31.10
2023-01-29T13:40:07.354Z,29.07
2023-01-29T13:44:21.042Z,30.00
2023-01-29T13:48:27.803Z,29.97
2023-01-29T13:52:35.786Z,29.23
2023-01-29T13:56:40.098Z,29.40
2023-01-29T14:00:41.369Z,28.90
2023-01-29T14:04:42.693Z,29.33
2023-01-29T14:08:45.235Z,28.33
2023-01-29T14:12:48.399Z,27.80
2023-01-29T14:16:49.970Z,27.10
2023-01-29T14:20:58.639Z,27.63
2023-01-29T14:25:03.836Z,25.30
2023-01-29T14:29:32.574Z,25.47
2023-01-29T14:33:38.482Z,25.37
2023-01-29T14:37:41.384Z,25.67
2023-01-29T14:41:43.009Z,24.90
2023-01-29T14:45:45.004Z,24.93
2023-01-29T14:49:59.445Z,24.03
2023-01-29T14:54:14.556Z,22.40
2023-01-29T14:58:23.689Z,20.07
2023-01-29T15:02:37.115Z,20.53
2023-01-29T15:06:46.370Z,18.60
2023-01-29T15:11:19.035Z,13.90
2023-01-29T15:15:52.560Z,13.37
2023-01-29T15:19:54.965Z,11.13
2023-01-29T15:24:06.938Z,9.73
2023-01-29T15:28:11.081Z,9.87
2023-01-29T15:32:29.834Z,8.13
2023-01-29T15:36:32.128Z,7.23
2023-01-29T15:40:34.688Z,7.90
2023-01-29T15:44:36.014Z,8.70
2023-01-29T15:48:43.464Z,7.97
2023-01-29T15:52:49.848Z,8.57
2023-01-29T15:56:53.069Z,8.27
2023-01-29T16:00:57.247Z,8.27
2023-01-29T16:04:59.291Z,8.50
2023-01-29T16:09:01.091Z,8.10
2023-01-29T16:13:03.129Z,9.23
2023-01-29T16:17:23.024Z,8.40
2023-01-29T16:21:33.832Z,8.00
2023-01-29T16:25:38.550Z,8.87
2023-01-29T16:29:40.008Z,8.60
2023-01-29T16:33:45.307Z,8.07
2023-01-29T16:37:48.840Z,9.93
2023-01-29T16:42:21.397Z,8.53
2023-01-29T16:46:26.120Z,9.03
2023-01-29T16:50:36.051Z,9.10
2023-01-29T16:54:43.214Z,10.17
2023-01-29T16:58:50.658Z,9.37
2023-01-29T17:02:56.422Z,9.63
2023-01-29T17:07:01.249Z,10.93
2023-01-29T17:11:03.157Z,12.03
2023-01-29T17:15:26.038Z,10.40
2023-01-29T17:19:30.009Z,10.43
2023-01-29T17:23:31.386Z,11.07
2023-01-29T17:27:32.801Z,12.80
2023-01-29T17:31:34.302Z,13.10
2023-01-29T17:35:38.004Z,12.67
2023-01-29T17:39:39.456Z,12.77
2023-01-29T17:43:41.029Z,13.90
2023-01-29T17:47:42.375Z,14.03
2023-01-29T17:51:43.740Z,13.87
2023-01-29T17:55:45.111Z,14.70
2023-01-29T17:59:46.775Z,15.23
2023-01-29T18:03:48.080Z,16.33
2023-01-29T18:07:52.127Z,16.77
2023-01-29T18:11:53.981Z,17.73
2023-01-29T18:15:55.794Z,15.93
2023-01-29T18:19:58.232Z,14.83
2023-01-29T18:23:59.704Z,15.10
2023-01-29T18:28:01.734Z,15.53
2023-01-29T18:32:03.969Z,16.70
2023-01-29T18:36:06.715Z,15.00
2023-01-29T18:40:09.831Z,15.60
2023-01-29T18:44:11.718Z,15.97
2023-01-29T18:48:14.102Z,15.77
2023-01-29T18:52:16.289Z,14.73
2023-01-29T18:56:17.808Z,15.27
2023-01-29T19:00:19.645Z,15.73
2023-01-29T19:04:21.069Z,16.07
2023-01-29T19:08:22.416Z,14.77
2023-01-29T19:12:23.864Z,14.37
2023-01-29T19:16:25.712Z,14.83
2023-01-29T19:20:27.140Z,15.93
2023-01-29T19:24:28.546Z,15.73
2023-01-29T19:28:29.983Z,16.90
2023-01-29T19:32:32.040Z,17.10
2023-01-29T19:36:33.454Z,17.27
2023-01-29T19:40:35.676Z,18.70
2023-01-29T19:44:39.101Z,18.57
2023-01-29T19:48:40.742Z,17.40
2023-01-29T19:52:51.217Z,19.30
2023-01-29T19:56:53.679Z,17.83
2023-01-29T20:01:00.300Z,16.93
2023-01-29T20:05:03.415Z,16.77
2023-01-29T20:09:05.471Z,18.60
2023-01-29T20:13:06.780Z,17.23
2023-01-29T20:17:08.239Z,21.37
2023-01-29T20:21:12.469Z,21.10
2023-01-29T20:25:14.116Z,18.73
2023-01-29T20:29:15.505Z,17.93
2023-01-29T20:33:16.842Z,19.57
2023-01-29T20:37:19.236Z,19.40
2023-01-29T20:41:21.132Z,19.33
2023-01-29T20:45:23.108Z,18.37
2023-01-29T20:49:24.416Z,16.87
2023-01-29T20:53:25.721Z,17.53
2023-01-29T20:57:27.331Z,17.87
2023-01-29T21:01:28.868Z,18.47
2023-01-29T21:05:30.307Z,17.27
2023-01-29T21:09:31.868Z,18.27
2023-01-29T21:13:33.663Z,17.70
2023-01-29T21:17:35.063Z,18.33
2023-01-29T21:21:36.468Z,18.20
2023-01-29T21:25:38.737Z,16.20
2023-01-29T21:29:40.153Z,16.83
2023-01-29T21:33:41.960Z,16.40
2023-01-29T21:37:43.387Z,15.50
2023-01-29T21:42:05.078Z,17.00
2023-01-29T21:46:13.789Z,15.93
2023-01-29T21:50:16.051Z,17.17
2023-01-29T21:54:18.080Z,15.90
2023-01-29T21:58:20.493Z,16.33
2023-01-29T22:02:22.965Z,15.97
2023-01-29T22:06:24.674Z,15.90
2023-01-29T22:10:26.130Z,15.70
2023-01-29T22:14:27.610Z,16.63
2023-01-29T22:18:28.908Z,17.97
2023-01-29T22:22:30.277Z,19.43
2023-01-29T22:26:32.114Z,17.87
2023-01-29T22:30:33.611Z,18.17
2023-01-29T22:34:34.975Z,19.13
2023-01-29T22:38:36.475Z,18.73
2023-01-29T22:42:37.811Z,17.37
2023-01-29T22:46:39.229Z,17.33
2023-01-29T22:50:41.474Z,17.97
2023-01-29T22:54:43.634Z,18.30
2023-01-29T22:58:45.031Z,18.93
2023-01-29T23:02:47.222Z,18.10
2023-01-29T23:06:48.559Z,16.47
2023-01-29T23:10:50.205Z,15.63
2023-01-29T23:14:51.503Z,16.57
2023-01-29T23:18:55.989Z,16.53
2023-01-29T23:22:57.431Z,15.30
2023-01-29T23:27:17.123Z,14.57
2023-01-29T23:31:18.575Z,15.50
2023-01-29T23:35:20.025Z,16.20
2023-01-29T23:39:21.451Z,15.97
2023-01-29T23:43:26.563Z,15.13
2023-01-29T23:47:27.889Z,13.33
2023-01-29T23:51:29.190Z,14.87
2023-01-29T23:55:30.509Z,14.90
2023-01-29T23:59:31.874Z,15.53
